Time;durP1;ratioP1;P1;durP2;ratioP2;P2;SDS_P1;SDS_P2;PMS_P1;PMS_P2;Temp;Humidity;BMP_temperature;BMP_pressure;BME280_temperature;BME280_humidity;BME280_pressure;Samples;Min_cycle;Max_cycle;Signal;HPM_P1;HPM_P2
2023/10/14 00:01:13;;;;;;;0.10;0.10;;;;;;;;;;5118443;27;20040;-78
2023/10/14 00:03:45;;;;;;;0.10;0.10;;;;;;;;;;5118756;27;20052;-78
2023/10/14 00:06:12;;;;;;;0.10;0.10;;;;;;;;;;5103788;28;20055;-78
2023/10/14 00:11:23;;;;;;;0.10;0.10;;;;;;;;;;5109267;27;20056;-78
2023/10/14 00:13:52;;;;;;;0.10;0.10;;;;;;;;;;5109860;28;20051;-77
2023/10/14 00:16:39;;;;;;;0.10;0.10;;;;;;;;;;5113199;27;20040;-78
2023/10/14 00:19:09;;;;;;;0.10;0.10;;;;;;;;;;5112086;28;20091;-77
2023/10/14 00:21:36;;;;;;;0.10;0.10;;;;;;;;;;5115476;28;20052;-77
2023/10/14 00:24:04;;;;;;;0.10;0.10;;;;;;;;;;5132680;27;20074;-77
2023/10/14 00:26:30;;;;;;;0.10;0.10;;;;;;;;;;5116280;27;20079;-77
2023/10/14 00:31:46;;;;;;;0.10;0.10;;;;;;;;;;5112006;27;20499;-77
2023/10/14 00:34:15;;;;;;;0.10;0.10;;;;;;;;;;5113681;28;20155;-77
2023/10/14 00:36:42;;;;;;;0.10;0.10;;;;;;;;;;5109939;28;20051;-77
2023/10/14 00:39:12;;;;;;;0.10;0.10;;;;;;;;;;5115154;27;20052;-77
2023/10/14 00:41:39;;;;;;;0.10;0.10;;;;;;;;;;5114975;28;20054;-77
2023/10/14 00:44:05;;;;;;;0.10;0.10;;;;;;;;;;5111875;27;20092;-77
2023/10/14 00:46:33;;;;;;;0.10;0.10;;;;;;;;;;5106420;28;20048;-77
2023/10/14 00:49:04;;;;;;;0.10;0.10;;;;;;;;;;5108606;28;20048;-77
2023/10/14 00:51:33;;;;;;;0.10;0.10;;;;;;;;;;5116128;27;20067;-76
2023/10/14 00:54:03;;;;;;;0.10;0.10;;;;;;;;;;5113673;27;20040;-76
2023/10/14 00:56:31;;;;;;;0.10;0.10;;;;;;;;;;5112259;27;20067;-77
2023/10/14 00:58:59;;;;;;;0.10;0.10;;;;;;;;;;5111928;28;20056;-77
2023/10/14 01:01:31;;;;;;;0.10;0.10;;;;;;;;;;5119088;27;20048;-77
2023/10/14 01:04:18;;;;;;;0.10;0.10;;;;;;;;;;5117937;27;20040;-77
2023/10/14 01:07:13;;;;;;;0.10;0.10;;;;;;;;;;5116968;28;20067;-77
2023/10/14 01:12:27;;;;;;;0.10;0.10;;;;;;;;;;5111044;27;20049;-77
2023/10/14 01:14:58;;;;;;;0.20;0.20;;;;;;;;;;5112142;28;20083;-77
2023/10/14 01:19:52;;;;;;;0.10;0.10;;;;;;;;;;5262317;22;20781;-80
2023/10/14 01:22:19;;;;;;;0.10;0.10;;;;;;;;;;5111685;28;20036;-80
2023/10/14 01:24:45;;;;;;;0.10;0.10;;;;;;;;;;5133284;27;20083;-81
2023/10/14 01:27:13;;;;;;;0.10;0.10;;;;;;;;;;5110124;27;20095;-82
2023/10/14 01:29:40;;;;;;;0.10;0.10;;;;;;;;;;5112524;28;20118;-80
2023/10/14 01:32:10;;;;;;;0.10;0.10;;;;;;;;;;5116671;28;20063;-79
2023/10/14 01:34:43;;;;;;;0.10;0.10;;;;;;;;;;5113920;28;20082;-81
2023/10/14 01:37:19;;;;;;;0.10;0.10;;;;;;;;;;5109502;27;20055;-80
2023/10/14 01:39:49;;;;;;;0.10;0.10;;;;;;;;;;5109542;28;20060;-81
2023/10/14 01:42:17;;;;;;;0.10;0.10;;;;;;;;;;5100007;28;20040;-81
2023/10/14 01:44:44;;;;;;;0.10;0.10;;;;;;;;;;5116810;27;20230;-83
2023/10/14 01:47:11;;;;;;;0.10;0.10;;;;;;;;;;5114175;27;20059;-79
2023/10/14 01:49:37;;;;;;;0.10;0.10;;;;;;;;;;5108646;28;20078;-81
2023/10/14 01:52:14;;;;;;;0.10;0.10;;;;;;;;;;5108373;28;20100;-81
2023/10/14 01:54:41;;;;;;;0.43;0.22;;;;;;;;;;5125994;27;20074;-80
2023/10/14 01:57:17;;;;;;;0.10;0.10;;;;;;;;;;5112382;27;21195;-79
2023/10/14 01:59:45;;;;;;;0.10;0.10;;;;;;;;;;5109364;28;20045;-80
2023/10/14 02:02:16;;;;;;;0.10;0.10;;;;;;;;;;5110089;28;20959;-82
2023/10/14 02:04:45;;;;;;;0.10;0.10;;;;;;;;;;5114999;27;20043;-83
2023/10/14 02:07:18;;;;;;;0.05;0.05;;;;;;;;;;5108565;28;20075;-83
2023/10/14 02:09:44;;;;;;;0.10;0.10;;;;;;;;;;5116242;28;20056;-80
2023/10/14 02:12:12;;;;;;;0.10;0.10;;;;;;;;;;5114012;28;20152;-80
2023/10/14 02:14:57;;;;;;;0.10;0.10;;;;;;;;;;5112523;28;20060;-81
2023/10/14 02:17:24;;;;;;;0.10;0.10;;;;;;;;;;5111111;28;20094;-80
2023/10/14 02:19:53;;;;;;;0.10;0.10;;;;;;;;;;5103117;28;20052;-81
2023/10/14 02:22:22;;;;;;;0.10;0.10;;;;;;;;;;5108248;28;20052;-81
2023/10/14 02:24:49;;;;;;;0.10;0.10;;;;;;;;;;5115393;28;20048;-82
2023/10/14 02:27:16;;;;;;;0.10;0.10;;;;;;;;;;5113235;27;20947;-81
2023/10/14 02:29:45;;;;;;;0.10;0.10;;;;;;;;;;5112428;28;20206;-81
2023/10/14 02:32:12;;;;;;;0.10;0.10;;;;;;;;;;5111622;27;20102;-81
2023/10/14 02:34:39;;;;;;;0.10;0.10;;;;;;;;;;5107246;27;20241;-83
2023/10/14 02:37:07;;;;;;;0.10;0.10;;;;;;;;;;5112187;27;20056;-82
2023/10/14 02:39:33;;;;;;;0.10;0.10;;;;;;;;;;5119902;28;20133;-82
2023/10/14 02:44:33;;;;;;;0.10;0.10;;;;;;;;;;5116769;27;20919;-82
2023/10/14 02:47:08;;;;;;;0.10;0.10;;;;;;;;;;5117897;27;20056;-82
2023/10/14 02:49:40;;;;;;;0.10;0.10;;;;;;;;;;5112696;28;20048;-81
2023/10/14 02:52:11;;;;;;;0.10;0.10;;;;;;;;;;5113816;28;20502;-84
2023/10/14 02:54:44;;;;;;;0.10;0.10;;;;;;;;;;5108362;27;20592;-85
2023/10/14 02:57:14;;;;;;;0.10;0.10;;;;;;;;;;5116555;28;20056;-84
2023/10/14 03:02:27;;;;;;;0.10;0.10;;;;;;;;;;5112047;28;20202;-83
2023/10/14 03:07:30;;;;;;;0.40;0.40;;;;;;;;;;5117159;27;20050;-81
2023/10/14 03:12:39;;;;;;;0.10;0.10;;;;;;;;;;5114063;27;20056;-82
2023/10/14 03:15:19;;;;;;;0.10;0.10;;;;;;;;;;5117963;27;20055;-81
2023/10/14 03:17:52;;;;;;;0.10;0.10;;;;;;;;;;5113910;28;20040;-83
2023/10/14 03:22:54;;;;;;;0.03;0.03;;;;;;;;;;5111928;27;20057;-85
2023/10/14 03:25:24;;;;;;;0.10;0.10;;;;;;;;;;5113260;27;20043;-84
2023/10/14 03:27:51;;;;;;;0.05;0.05;;;;;;;;;;5113225;28;20095;-82
2023/10/14 03:30:17;;;;;;;0.10;0.10;;;;;;;;;;5121916;28;20044;-82
2023/10/14 03:32:44;;;;;;;0.10;0.10;;;;;;;;;;5119989;28;20040;-80
2023/10/14 03:35:12;;;;;;;0.10;0.10;;;;;;;;;;5115944;27;20072;-80
2023/10/14 03:37:44;;;;;;;0.10;0.10;;;;;;;;;;5121107;27;20048;-81
2023/10/14 03:43:07;;;;;;;0.10;0.10;;;;;;;;;;5117210;27;20137;-84
2023/10/14 03:45:45;;;;;;;0.10;0.10;;;;;;;;;;5134447;27;20091;-82
2023/10/14 03:48:13;;;;;;;0.10;0.10;;;;;;;;;;5118838;28;20081;-84
2023/10/14 03:50:40;;;;;;;0.10;0.10;;;;;;;;;;5112429;28;20041;-84
2023/10/14 03:53:06;;;;;;;0.10;0.10;;;;;;;;;;5134755;27;20064;-82
2023/10/14 03:55:33;;;;;;;0.10;0.10;;;;;;;;;;5133489;27;20078;-81
2023/10/14 03:58:03;;;;;;;0.10;0.10;;;;;;;;;;5120563;28;20040;-83
2023/10/14 04:00:39;;;;;;;0.10;0.10;;;;;;;;;;5116739;27;20040;-83
2023/10/14 04:03:14;;;;;;;0.10;0.10;;;;;;;;;;5108970;28;20122;-84
2023/10/14 04:05:59;;;;;;;0.10;0.10;;;;;;;;;;5105860;27;20053;-82
2023/10/14 04:08:33;;;;;;;0.10;0.10;;;;;;;;;;5111390;28;20139;-81
2023/10/14 04:11:13;;;;;;;0.10;0.10;;;;;;;;;;5111592;28;20033;-82
2023/10/14 04:13:41;;;;;;;0.20;0.20;;;;;;;;;;5111546;28;20100;-82
2023/10/14 04:16:12;;;;;;;0.10;0.10;;;;;;;;;;5114611;27;20116;-79
2023/10/14 04:18:41;;;;;;;0.10;0.10;;;;;;;;;;5133981;27;20055;-82
2023/10/14 04:21:14;;;;;;;0.10;0.10;;;;;;;;;;5116151;28;20051;-82
2023/10/14 04:26:25;;;;;;;0.10;0.10;;;;;;;;;;5116557;27;20101;-84
2023/10/14 04:28:58;;;;;;;0.10;0.10;;;;;;;;;;5117113;27;20044;-82
2023/10/14 04:31:40;;;;;;;0.10;0.10;;;;;;;;;;5113518;27;20051;-82
2023/10/14 04:34:07;;;;;;;0.08;0.08;;;;;;;;;;5110778;28;20966;-82
2023/10/14 04:36:38;;;;;;;0.10;0.10;;;;;;;;;;5110406;27;20055;-84
2023/10/14 04:39:14;;;;;;;0.10;0.10;;;;;;;;;;5108995;28;20028;-82
2023/10/14 04:41:55;;;;;;;0.10;0.10;;;;;;;;;;5106747;28;20052;-81
2023/10/14 04:44:23;;;;;;;0.10;0.10;;;;;;;;;;5115979;27;20062;-81
2023/10/14 04:47:01;;;;;;;0.10;0.10;;;;;;;;;;5117870;27;20044;-82
2023/10/14 04:49:37;;;;;;;0.30;0.30;;;;;;;;;;5109310;28;20067;-82
2023/10/14 04:52:05;;;;;;;0.10;0.10;;;;;;;;;;5131681;27;20055;-82
2023/10/14 04:54:35;;;;;;;0.10;0.10;;;;;;;;;;5104169;28;20052;-84
2023/10/14 04:57:19;;;;;;;0.10;0.10;;;;;;;;;;5113648;27;20048;-84
2023/10/14 04:59:46;;;;;;;0.10;0.10;;;;;;;;;;5110196;27;20048;-83
2023/10/14 05:02:20;;;;;;;0.10;0.10;;;;;;;;;;5117673;28;20840;-82
2023/10/14 05:04:48;;;;;;;0.10;0.10;;;;;;;;;;5108393;27;20048;-85
2023/10/14 05:07:15;;;;;;;0.10;0.10;;;;;;;;;;5132363;27;20044;-83
2023/10/14 05:09:49;;;;;;;2.85;0.90;;;;;;;;;;5114001;28;20162;-82
2023/10/14 05:12:24;;;;;;;0.10;0.10;;;;;;;;;;5107907;28;20163;-84
2023/10/14 05:14:52;;;;;;;0.00;0.00;;;;;;;;;;5124469;27;20127;-82
2023/10/14 05:17:25;;;;;;;0.10;0.10;;;;;;;;;;5104228;27;20047;-82
2023/10/14 05:19:57;;;;;;;0.10;0.10;;;;;;;;;;5101532;28;20543;-82
2023/10/14 05:22:24;;;;;;;0.10;0.10;;;;;;;;;;5104293;28;20137;-80
2023/10/14 05:25:03;;;;;;;0.10;0.10;;;;;;;;;;5103859;28;20068;-80
2023/10/14 05:27:45;;;;;;;0.10;0.10;;;;;;;;;;5101162;28;20053;-80
2023/10/14 05:30:21;;;;;;;0.00;0.00;;;;;;;;;;5092786;28;20052;-81
2023/10/14 05:32:48;;;;;;;0.10;0.10;;;;;;;;;;5105186;28;20143;-81
2023/10/14 05:35:15;;;;;;;0.10;0.10;;;;;;;;;;5098677;27;20048;-82
2023/10/14 05:37:41;;;;;;;0.10;0.10;;;;;;;;;;5113121;27;20055;-81
2023/10/14 05:40:15;;;;;;;0.10;0.10;;;;;;;;;;5105788;28;20067;-82
2023/10/14 05:42:43;;;;;;;0.10;0.10;;;;;;;;;;5106014;28;20513;-81
2023/10/14 05:45:11;;;;;;;0.10;0.10;;;;;;;;;;5106459;27;21385;-80
2023/10/14 05:47:39;;;;;;;0.00;0.00;;;;;;;;;;5107291;28;20028;-84
2023/10/14 05:50:08;;;;;;;0.10;0.10;;;;;;;;;;5103134;28;20102;-83
2023/10/14 05:52:35;;;;;;;0.10;0.10;;;;;;;;;;5103358;28;20052;-85
2023/10/14 05:55:05;;;;;;;0.08;0.08;;;;;;;;;;5111209;27;20981;-81
2023/10/14 05:57:34;;;;;;;0.10;0.10;;;;;;;;;;5110597;28;20119;-80
2023/10/14 06:00:02;;;;;;;0.10;0.10;;;;;;;;;;5107093;28;20514;-83
2023/10/14 06:02:28;;;;;;;0.10;0.10;;;;;;;;;;5107994;27;20044;-84
2023/10/14 06:04:55;;;;;;;0.20;0.20;;;;;;;;;;5114803;27;20056;-84
2023/10/14 06:07:22;;;;;;;0.10;0.10;;;;;;;;;;5112308;27;20083;-82
2023/10/14 06:09:48;;;;;;;0.10;0.10;;;;;;;;;;5102292;28;20516;-81
2023/10/14 06:12:16;;;;;;;0.10;0.10;;;;;;;;;;5102378;28;20459;-81
2023/10/14 06:14:45;;;;;;;0.10;0.10;;;;;;;;;;5107863;27;20119;-82
2023/10/14 06:17:11;;;;;;;0.10;0.10;;;;;;;;;;5109249;27;20083;-81
2023/10/14 06:19:38;;;;;;;0.10;0.10;;;;;;;;;;5109781;28;20056;-79
2023/10/14 06:22:08;;;;;;;0.10;0.10;;;;;;;;;;5101586;28;20052;-78
2023/10/14 06:24:35;;;;;;;0.10;0.10;;;;;;;;;;5106623;27;20963;-79
2023/10/14 06:27:08;;;;;;;0.10;0.10;;;;;;;;;;5107794;27;20088;-79
2023/10/14 06:29:35;;;;;;;0.10;0.10;;;;;;;;;;5108652;28;20036;-81
2023/10/14 06:32:03;;;;;;;0.00;0.00;;;;;;;;;;5107260;27;20048;-82
2023/10/14 06:34:47;;;;;;;0.10;0.10;;;;;;;;;;5098725;28;20037;-79
2023/10/14 06:37:13;;;;;;;0.10;0.10;;;;;;;;;;5110835;27;20036;-78
2023/10/14 06:39:41;;;;;;;0.10;0.10;;;;;;;;;;5128738;27;20083;-79
2023/10/14 06:42:07;;;;;;;0.10;0.10;;;;;;;;;;5115122;27;20048;-80
2023/10/14 06:44:34;;;;;;;0.10;0.10;;;;;;;;;;5106187;27;20139;-82
2023/10/14 06:47:00;;;;;;;0.10;0.10;;;;;;;;;;5106583;27;20047;-80
2023/10/14 06:49:32;;;;;;;0.00;0.00;;;;;;;;;;5127028;27;20864;-82
2023/10/14 06:51:59;;;;;;;0.10;0.10;;;;;;;;;;5102768;27;20060;-81
2023/10/14 06:54:25;;;;;;;0.10;0.10;;;;;;;;;;5107473;28;20048;-81
2023/10/14 06:56:53;;;;;;;0.10;0.10;;;;;;;;;;5107041;27;20137;-78
2023/10/14 06:59:20;;;;;;;0.10;0.10;;;;;;;;;;5113643;27;20044;-81
2023/10/14 07:01:47;;;;;;;0.00;0.00;;;;;;;;;;5109610;27;20052;-78
2023/10/14 07:04:16;;;;;;;0.10;0.10;;;;;;;;;;5102002;28;20495;-79
2023/10/14 07:06:47;;;;;;;0.10;0.10;;;;;;;;;;5105546;27;20070;-78
2023/10/14 07:09:17;;;;;;;0.00;0.00;;;;;;;;;;5104421;28;20048;-78
2023/10/14 07:11:47;;;;;;;0.10;0.10;;;;;;;;;;5109137;27;20574;-81
2023/10/14 07:14:13;;;;;;;0.10;0.10;;;;;;;;;;5101999;27;20486;-80
2023/10/14 07:16:42;;;;;;;0.10;0.10;;;;;;;;;;5103694;28;20105;-78
2023/10/14 07:19:11;;;;;;;0.10;0.10;;;;;;;;;;5122301;27;20056;-78
2023/10/14 07:21:38;;;;;;;0.10;0.10;;;;;;;;;;5100609;27;20448;-79
2023/10/14 07:24:07;;;;;;;0.10;0.10;;;;;;;;;;5141442;22;20537;-77
2023/10/14 07:26:37;;;;;;;0.10;0.10;;;;;;;;;;5123729;27;20052;-80
2023/10/14 07:29:05;;;;;;;0.08;0.08;;;;;;;;;;5104940;27;20101;-77
2023/10/14 07:31:32;;;;;;;0.10;0.10;;;;;;;;;;5107628;28;20063;-80
2023/10/14 07:34:02;;;;;;;0.05;0.05;;;;;;;;;;5098741;28;20045;-77
2023/10/14 07:36:29;;;;;;;0.10;0.10;;;;;;;;;;5102199;27;20094;-78
2023/10/14 07:39:02;;;;;;;0.10;0.10;;;;;;;;;;5107283;27;20105;-79
2023/10/14 07:41:29;;;;;;;0.10;0.10;;;;;;;;;;5105278;28;21008;-78
2023/10/14 07:43:55;;;;;;;0.10;0.10;;;;;;;;;;5107057;28;20048;-77
2023/10/14 07:46:23;;;;;;;0.10;0.10;;;;;;;;;;5106693;28;20056;-78
2023/10/14 07:48:53;;;;;;;0.10;0.10;;;;;;;;;;5099707;27;20117;-79
2023/10/14 07:51:19;;;;;;;0.10;0.10;;;;;;;;;;5104304;27;20076;-77
2023/10/14 07:53:56;;;;;;;0.10;0.10;;;;;;;;;;5101266;28;20052;-80
2023/10/14 07:56:23;;;;;;;0.75;0.73;;;;;;;;;;5103325;28;20052;-79
2023/10/14 07:58:52;;;;;;;0.10;0.10;;;;;;;;;;5103312;27;20517;-78
2023/10/14 08:01:22;;;;;;;0.10;0.10;;;;;;;;;;5106404;27;20642;-79
2023/10/14 08:03:49;;;;;;;0.10;0.10;;;;;;;;;;5109773;27;20094;-79
2023/10/14 08:06:18;;;;;;;0.10;0.10;;;;;;;;;;5101226;27;20591;-78
2023/10/14 08:08:50;;;;;;;0.10;0.10;;;;;;;;;;5084598;28;20052;-77
2023/10/14 08:11:17;;;;;;;0.10;0.10;;;;;;;;;;5101336;27;20048;-79
2023/10/14 08:13:44;;;;;;;0.10;0.10;;;;;;;;;;5109336;28;21028;-79
2023/10/14 08:16:11;;;;;;;0.10;0.10;;;;;;;;;;5091989;28;20098;-77
2023/10/14 08:18:41;;;;;;;0.10;0.10;;;;;;;;;;5102999;28;20398;-78
2023/10/14 08:21:11;;;;;;;0.10;0.10;;;;;;;;;;5102397;27;20135;-79
2023/10/14 08:23:38;;;;;;;0.10;0.10;;;;;;;;;;5103679;27;20086;-77
2023/10/14 08:26:12;;;;;;;0.30;0.20;;;;;;;;;;5080873;27;20063;-76
2023/10/14 08:28:40;;;;;;;0.10;0.10;;;;;;;;;;5102580;27;20047;-77
2023/10/14 08:31:08;;;;;;;0.10;0.10;;;;;;;;;;5112186;27;20056;-78
2023/10/14 08:33:36;;;;;;;0.10;0.10;;;;;;;;;;5103461;27;20044;-78
2023/10/14 08:36:03;;;;;;;0.10;0.10;;;;;;;;;;5088645;28;20736;-77
2023/10/14 08:38:29;;;;;;;0.10;0.10;;;;;;;;;;5097786;27;20578;-78
2023/10/14 08:40:59;;;;;;;0.52;0.40;;;;;;;;;;5104668;27;20502;-77
2023/10/14 08:43:26;;;;;;;0.10;0.10;;;;;;;;;;5104140;27;20052;-77
2023/10/14 08:45:59;;;;;;;0.10;0.10;;;;;;;;;;5087069;27;20059;-76
2023/10/14 08:48:27;;;;;;;0.10;0.10;;;;;;;;;;5108544;27;20502;-77
2023/10/14 08:50:57;;;;;;;0.10;0.10;;;;;;;;;;5109118;27;20086;-79
2023/10/14 08:53:24;;;;;;;0.10;0.10;;;;;;;;;;5089280;28;20444;-79
2023/10/14 08:55:54;;;;;;;0.20;0.20;;;;;;;;;;5087562;28;20078;-79
2023/10/14 08:58:22;;;;;;;0.10;0.10;;;;;;;;;;5102379;28;20051;-78
2023/10/14 09:00:51;;;;;;;0.10;0.10;;;;;;;;;;5091763;28;20258;-78
2023/10/14 09:03:17;;;;;;;0.10;0.10;;;;;;;;;;5107867;28;20062;-76
2023/10/14 09:05:44;;;;;;;0.57;0.40;;;;;;;;;;5108218;28;20059;-79
2023/10/14 09:08:12;;;;;;;0.10;0.10;;;;;;;;;;5107682;27;20544;-78
2023/10/14 09:10:38;;;;;;;0.10;0.10;;;;;;;;;;5101932;27;20052;-77
2023/10/14 09:13:12;;;;;;;0.10;0.10;;;;;;;;;;5106821;28;20051;-77
2023/10/14 09:15:39;;;;;;;0.10;0.10;;;;;;;;;;5083978;28;20105;-78
2023/10/14 09:18:13;;;;;;;0.10;0.10;;;;;;;;;;5109255;28;20048;-78
2023/10/14 09:20:41;;;;;;;0.00;0.00;;;;;;;;;;5107964;28;20044;-78
2023/10/14 09:23:15;;;;;;;0.10;0.10;;;;;;;;;;5104575;28;20051;-78
2023/10/14 09:25:42;;;;;;;0.10;0.10;;;;;;;;;;5106633;27;20064;-77
2023/10/14 09:28:09;;;;;;;0.10;0.10;;;;;;;;;;5106723;27;20094;-79
2023/10/14 09:30:37;;;;;;;0.17;0.17;;;;;;;;;;5108554;28;20071;-78
2023/10/14 09:33:04;;;;;;;0.10;0.10;;;;;;;;;;5090360;28;20056;-78
2023/10/14 09:35:31;;;;;;;0.10;0.10;;;;;;;;;;5107570;28;20056;-76
2023/10/14 09:37:59;;;;;;;0.10;0.10;;;;;;;;;;5087559;28;20059;-79
2023/10/14 09:40:26;;;;;;;0.13;0.13;;;;;;;;;;5104462;28;20067;-79
2023/10/14 09:42:52;;;;;;;0.10;0.10;;;;;;;;;;5088852;28;20044;-78
2023/10/14 09:45:22;;;;;;;0.10;0.10;;;;;;;;;;5105505;28;20525;-77
2023/10/14 09:47:50;;;;;;;0.10;0.10;;;;;;;;;;5109669;28;20048;-77
2023/10/14 09:50:17;;;;;;;0.10;0.10;;;;;;;;;;5103457;27;20059;-76
2023/10/14 09:52:45;;;;;;;0.50;0.50;;;;;;;;;;5103013;27;20057;-78
2023/10/14 09:55:14;;;;;;;0.10;0.10;;;;;;;;;;5098722;27;20040;-77
2023/10/14 09:57:42;;;;;;;0.10;0.10;;;;;;;;;;5105901;27;20063;-78
2023/10/14 10:00:10;;;;;;;0.10;0.10;;;;;;;;;;5105813;27;20055;-78
2023/10/14 10:02:38;;;;;;;0.10;0.10;;;;;;;;;;5110491;28;20129;-79
2023/10/14 10:05:06;;;;;;;0.10;0.10;;;;;;;;;;5103157;27;20855;-78
2023/10/14 10:07:45;;;;;;;0.20;0.20;;;;;;;;;;5109476;28;20526;-78
2023/10/14 10:10:14;;;;;;;0.10;0.10;;;;;;;;;;5102891;28;20059;-78
2023/10/14 10:12:42;;;;;;;0.10;0.10;;;;;;;;;;5108058;28;20056;-79
2023/10/14 10:15:08;;;;;;;0.10;0.10;;;;;;;;;;5085170;27;20312;-76
2023/10/14 10:17:39;;;;;;;0.10;0.10;;;;;;;;;;5105631;28;20059;-77
2023/10/14 10:20:20;;;;;;;0.10;0.10;;;;;;;;;;5100291;27;20135;-77
2023/10/14 10:22:52;;;;;;;0.20;0.20;;;;;;;;;;5084234;28;20068;-79
2023/10/14 10:25:23;;;;;;;0.10;0.10;;;;;;;;;;5099550;28;20059;-77
2023/10/14 10:27:52;;;;;;;0.10;0.10;;;;;;;;;;5104815;28;20052;-76
2023/10/14 10:30:19;;;;;;;0.10;0.10;;;;;;;;;;5104259;27;20098;-79
2023/10/14 10:32:50;;;;;;;0.20;0.20;;;;;;;;;;5107409;27;20052;-78
2023/10/14 10:35:17;;;;;;;0.10;0.10;;;;;;;;;;5106315;28;20048;-79
2023/10/14 10:37:48;;;;;;;5.13;2.92;;;;;;;;;;5107217;27;20048;-76
2023/10/14 10:40:27;;;;;;;0.10;0.10;;;;;;;;;;5096837;27;20059;-76
2023/10/14 10:42:57;;;;;;;0.10;0.10;;;;;;;;;;5107381;28;20125;-78
2023/10/14 10:45:32;;;;;;;0.10;0.10;;;;;;;;;;5108584;28;20052;-79
2023/10/14 10:48:00;;;;;;;0.10;0.10;;;;;;;;;;5101772;27;20037;-79
2023/10/14 10:50:27;;;;;;;0.10;0.10;;;;;;;;;;5107251;28;20479;-78
2023/10/14 10:53:05;;;;;;;0.10;0.10;;;;;;;;;;5107594;28;20052;-79
2023/10/14 10:55:36;;;;;;;0.10;0.10;;;;;;;;;;5102368;27;20829;-78
2023/10/14 10:58:03;;;;;;;0.10;0.10;;;;;;;;;;5104241;27;20052;-78
2023/10/14 11:00:30;;;;;;;0.10;0.10;;;;;;;;;;5104644;28;20052;-77
2023/10/14 11:02:57;;;;;;;0.10;0.10;;;;;;;;;;5104070;27;20052;-77
2023/10/14 11:05:25;;;;;;;0.20;0.20;;;;;;;;;;5103487;27;20058;-79
2023/10/14 11:07:52;;;;;;;0.10;0.10;;;;;;;;;;5108379;28;20122;-78
2023/10/14 11:10:26;;;;;;;0.10;0.10;;;;;;;;;;5086586;28;20509;-76
2023/10/14 11:12:56;;;;;;;0.10;0.10;;;;;;;;;;5114224;27;20508;-77
2023/10/14 11:15:23;;;;;;;0.10;0.10;;;;;;;;;;5123587;27;20055;-78
2023/10/14 11:17:53;;;;;;;1.05;1.05;;;;;;;;;;5119995;27;20135;-77
2023/10/14 11:20:20;;;;;;;0.10;0.10;;;;;;;;;;5104884;27;20378;-76
2023/10/14 11:22:47;;;;;;;0.10;0.10;;;;;;;;;;5123225;27;20020;-78
2023/10/14 11:25:13;;;;;;;0.10;0.10;;;;;;;;;;5109721;27;20525;-78
2023/10/14 11:27:54;;;;;;;0.30;0.30;;;;;;;;;;5107392;27;20047;-78
2023/10/14 11:30:24;;;;;;;0.10;0.10;;;;;;;;;;5089813;27;20532;-77
2023/10/14 11:32:51;;;;;;;0.35;0.35;;;;;;;;;;5118469;27;20367;-76
2023/10/14 11:35:19;;;;;;;0.10;0.10;;;;;;;;;;5128338;27;21028;-78
2023/10/14 11:37:49;;;;;;;3.40;1.00;;;;;;;;;;5107573;27;20105;-78
2023/10/14 11:40:31;;;;;;;0.10;0.10;;;;;;;;;;5112443;27;20536;-77
2023/10/14 11:42:58;;;;;;;0.10;0.10;;;;;;;;;;5096580;28;20052;-78
2023/10/14 11:45:24;;;;;;;0.10;0.10;;;;;;;;;;5097349;27;20052;-79
2023/10/14 11:47:51;;;;;;;0.10;0.10;;;;;;;;;;5118989;27;20056;-77
2023/10/14 11:50:18;;;;;;;0.10;0.10;;;;;;;;;;5095828;27;20575;-77
2023/10/14 11:52:47;;;;;;;0.10;0.10;;;;;;;;;;5116481;27;20110;-78
2023/10/14 11:55:16;;;;;;;0.10;0.10;;;;;;;;;;5117312;27;20059;-77
2023/10/14 11:57:44;;;;;;;0.10;0.10;;;;;;;;;;5119322;27;20138;-78
2023/10/14 12:00:11;;;;;;;0.10;0.10;;;;;;;;;;5114714;27;20468;-76
2023/10/14 12:02:39;;;;;;;0.10;0.10;;;;;;;;;;5110394;27;20046;-76
2023/10/14 12:05:08;;;;;;;0.20;0.20;;;;;;;;;;5116562;27;20060;-78
2023/10/14 12:07:34;;;;;;;0.10;0.10;;;;;;;;;;5109341;27;20129;-78
2023/10/14 12:10:04;;;;;;;0.10;0.10;;;;;;;;;;5094697;28;20145;-78
2023/10/14 12:12:31;;;;;;;0.60;0.40;;;;;;;;;;5108380;27;20087;-78
2023/10/14 12:14:58;;;;;;;0.20;0.20;;;;;;;;;;5120382;27;20090;-77
2023/10/14 12:17:24;;;;;;;0.10;0.10;;;;;;;;;;5113129;27;20068;-78
2023/10/14 12:19:51;;;;;;;0.10;0.10;;;;;;;;;;5106756;27;20113;-78
2023/10/14 12:22:19;;;;;;;0.25;0.20;;;;;;;;;;5090894;27;20860;-78
2023/10/14 12:24:47;;;;;;;0.10;0.10;;;;;;;;;;5083477;28;20510;-78
2023/10/14 12:27:14;;;;;;;0.10;0.10;;;;;;;;;;5110321;27;20052;-77
2023/10/14 12:29:40;;;;;;;0.10;0.10;;;;;;;;;;5104974;27;20048;-77
2023/10/14 12:32:15;;;;;;;0.30;0.30;;;;;;;;;;5104842;27;20040;-75
2023/10/14 12:34:46;;;;;;;0.10;0.10;;;;;;;;;;5109301;27;20139;-78
2023/10/14 12:37:18;;;;;;;0.10;0.10;;;;;;;;;;5124018;27;20048;-77
2023/10/14 12:39:48;;;;;;;0.10;0.10;;;;;;;;;;5111013;27;20055;-78
2023/10/14 12:42:16;;;;;;;0.10;0.10;;;;;;;;;;5110902;27;20128;-76
2023/10/14 12:44:49;;;;;;;0.10;0.10;;;;;;;;;;5108501;27;20883;-77
2023/10/14 12:47:18;;;;;;;0.10;0.10;;;;;;;;;;5107556;27;20067;-77
2023/10/14 12:49:46;;;;;;;0.10;0.10;;;;;;;;;;5105165;27;20060;-78
2023/10/14 12:52:15;;;;;;;0.10;0.10;;;;;;;;;;5109561;27;20515;-77
2023/10/14 12:54:41;;;;;;;0.10;0.10;;;;;;;;;;5111176;27;20074;-77
2023/10/14 12:57:08;;;;;;;0.17;0.17;;;;;;;;;;5110963;27;20047;-78
2023/10/14 12:59:40;;;;;;;0.43;0.30;;;;;;;;;;5110887;27;20056;-77
2023/10/14 13:02:08;;;;;;;0.10;0.10;;;;;;;;;;5105587;27;20083;-78
2023/10/14 13:04:38;;;;;;;0.15;0.15;;;;;;;;;;5110152;27;20051;-77
2023/10/14 13:07:08;;;;;;;0.10;0.10;;;;;;;;;;5113666;27;20498;-77
2023/10/14 13:09:35;;;;;;;0.10;0.10;;;;;;;;;;5121246;27;20052;-77
2023/10/14 13:12:08;;;;;;;0.43;0.30;;;;;;;;;;5103208;27;20152;-77
2023/10/14 13:14:37;;;;;;;0.10;0.10;;;;;;;;;;5115144;27;20059;-76
2023/10/14 13:17:06;;;;;;;0.55;0.55;;;;;;;;;;5117696;27;20934;-77
2023/10/14 13:19:36;;;;;;;0.10;0.10;;;;;;;;;;5105297;27;20150;-77
2023/10/14 13:22:09;;;;;;;0.10;0.10;;;;;;;;;;5118045;27;20581;-77
2023/10/14 13:24:36;;;;;;;0.10;0.10;;;;;;;;;;5110655;27;20056;-76
2023/10/14 13:27:03;;;;;;;0.10;0.10;;;;;;;;;;5091354;28;20056;-77
2023/10/14 13:29:29;;;;;;;0.10;0.10;;;;;;;;;;5107746;27;20053;-78
2023/10/14 13:31:56;;;;;;;0.10;0.10;;;;;;;;;;5120202;27;20551;-76
2023/10/14 13:34:23;;;;;;;0.13;0.13;;;;;;;;;;5115329;27;21050;-77
2023/10/14 13:36:49;;;;;;;0.10;0.10;;;;;;;;;;5089373;28;20504;-77
2023/10/14 13:39:24;;;;;;;0.40;0.40;;;;;;;;;;5110734;27;20055;-76
2023/10/14 13:41:51;;;;;;;0.10;0.10;;;;;;;;;;5111198;27;20056;-76
2023/10/14 13:44:17;;;;;;;0.10;0.10;;;;;;;;;;5097693;27;20522;-77
2023/10/14 13:46:43;;;;;;;0.10;0.10;;;;;;;;;;5109489;27;20102;-77
2023/10/14 13:49:10;;;;;;;0.10;0.10;;;;;;;;;;5112666;27;20581;-77
2023/10/14 13:51:37;;;;;;;0.10;0.10;;;;;;;;;;5110431;27;20110;-78
2023/10/14 13:54:03;;;;;;;0.10;0.10;;;;;;;;;;5108832;27;20163;-76
2023/10/14 13:56:31;;;;;;;0.15;0.15;;;;;;;;;;5121859;27;20056;-77
2023/10/14 13:58:57;;;;;;;0.13;0.13;;;;;;;;;;5112755;27;20043;-77
2023/10/14 14:01:24;;;;;;;0.10;0.10;;;;;;;;;;5118432;27;20083;-77
2023/10/14 14:03:57;;;;;;;0.10;0.10;;;;;;;;;;5091802;28;20052;-76
2023/10/14 14:06:28;;;;;;;0.20;0.20;;;;;;;;;;5116238;27;20139;-76
2023/10/14 14:08:55;;;;;;;2.30;1.55;;;;;;;;;;5111978;28;20494;-76
2023/10/14 14:11:23;;;;;;;0.10;0.10;;;;;;;;;;5101411;27;20139;-79
2023/10/14 14:13:50;;;;;;;0.10;0.10;;;;;;;;;;5093629;28;20533;-77
2023/10/14 14:16:18;;;;;;;1.30;0.70;;;;;;;;;;5091757;28;20052;-76
2023/10/14 14:18:49;;;;;;;0.10;0.10;;;;;;;;;;5108622;28;21006;-76
2023/10/14 14:21:16;;;;;;;0.20;0.20;;;;;;;;;;5103128;27;20629;-77
2023/10/14 14:23:43;;;;;;;0.10;0.10;;;;;;;;;;5111733;27;20514;-78
2023/10/14 14:26:16;;;;;;;0.10;0.10;;;;;;;;;;5121365;27;20075;-77
2023/10/14 14:28:43;;;;;;;0.10;0.10;;;;;;;;;;5082271;27;20048;-76
2023/10/14 14:31:12;;;;;;;0.10;0.10;;;;;;;;;;5113814;27;20160;-77
2023/10/14 14:33:43;;;;;;;0.10;0.10;;;;;;;;;;5108192;27;20109;-76
2023/10/14 14:36:12;;;;;;;0.63;0.60;;;;;;;;;;5123405;27;20056;-77
2023/10/14 14:38:43;;;;;;;1.30;1.20;;;;;;;;;;5108748;27;20989;-76
2023/10/14 14:41:17;;;;;;;0.10;0.10;;;;;;;;;;5117871;27;20066;-77
2023/10/14 14:43:44;;;;;;;0.10;0.10;;;;;;;;;;5098921;28;20049;-77
2023/10/14 14:46:14;;;;;;;0.10;0.10;;;;;;;;;;5114473;27;20408;-78
2023/10/14 14:48:40;;;;;;;0.10;0.10;;;;;;;;;;5117335;27;20032;-76
2023/10/14 14:51:10;;;;;;;0.10;0.10;;;;;;;;;;5122929;27;20056;-77
2023/10/14 14:53:37;;;;;;;0.10;0.10;;;;;;;;;;5092218;27;20051;-78
2023/10/14 14:56:09;;;;;;;0.10;0.10;;;;;;;;;;5111365;27;20061;-78
2023/10/14 14:58:36;;;;;;;0.10;0.10;;;;;;;;;;5113473;27;20087;-77
2023/10/14 15:01:03;;;;;;;5.13;0.32;;;;;;;;;;5111752;27;20058;-75
2023/10/14 15:03:30;;;;;;;0.10;0.10;;;;;;;;;;5096722;28;20052;-76
2023/10/14 15:05:58;;;;;;;0.10;0.10;;;;;;;;;;5112005;27;20105;-77
2023/10/14 15:08:24;;;;;;;0.10;0.10;;;;;;;;;;5116742;27;20151;-76
2023/10/14 15:10:54;;;;;;;0.10;0.10;;;;;;;;;;5091584;27;20078;-78
2023/10/14 15:13:20;;;;;;;0.57;0.55;;;;;;;;;;5119376;27;20052;-77
2023/10/14 15:15:49;;;;;;;0.10;0.10;;;;;;;;;;5125884;27;20513;-77
2023/10/14 15:18:17;;;;;;;0.63;0.63;;;;;;;;;;5120392;27;20054;-78
2023/10/14 15:20:46;;;;;;;0.10;0.10;;;;;;;;;;5127529;27;20059;-76
2023/10/14 15:23:15;;;;;;;0.20;0.20;;;;;;;;;;5113592;27;20044;-77
2023/10/14 15:25:41;;;;;;;0.10;0.10;;;;;;;;;;5113111;27;20059;-77